Impacts TAF Board
For situational awareness. Not to be used for flight planning purposes.
IDs:

KPDX - Portland Intl Arpt, OR, US

Issued at 2338 UTC 22 Sep 2018
Updated at 0209 UTC 23 Sep 2018
Potential Impact None Slight Moderate High
Time0153Z 23/03Z 23/04Z 23/05Z 23/06Z 23/07Z 23/08Z 23/09Z 23/10Z 23/11Z 23/12Z 23/13Z 23/14Z 23/15Z>>
Type OBS PRVL PRVL PRVL PRVL PRVL PRVL PRVL PRVL PRVL PRVL PRVL PRVL PRVL
VIS 10 >6 >6 >6 >6 >6 >6 >6 >6 >6 >6 >6 >6 >6
CIG 80 60 60 50 50 50 50 50 50 50 18 18 18 18
Cover BKN BKN BKN BKN BKN BKN BKN BKN BKN BKN BKN BKN BKN BKN
FltCat VFR VFR VFR VFR VFR VFR VFR VFR VFR VFR MVFR MVFR MVFR MVFR
WX -- VCSH VCSH -- -- -- -- -- -- -- -- -- -- --
WDir 310 280 280 300 300 300 300 300 300 300 310 310 310 310
WSpd 12 7 7 4 4 4 4 4 4 4 4 4 4 4
WGst -- -- -- -- -- -- -- -- -- -- -- -- -- --
Raw TAF
KPDX 222338Z 2300/2324 28007KT P6SM VCSH SCT025 SCT045 BKN060
  FM230500 30004KT P6SM SCT030 BKN050
  FM231200 31004KT P6SM BKN018 BKN040
  FM231700 30007KT P6SM SCT020 SCT050


Raw METAR
KPDX 230153Z 31012KT 10SM FEW050 SCT060 BKN080 18/08 A3005 RMK AO2 SLP176 T01830083
KPDX 230053Z 33008KT 10SM BKN050 BKN085 20/10 A3003 RMK AO2 SLP170 T02000100
KPDX 222353Z 25012G18KT 10SM BKN047 BKN075 BKN090 22/08 A3002 RMK AO2 SLP166 TCU DSNT NE 60001 T02170078 10217 20167 53003

METAR Board
Radar Display
Forecast Discussion
For situational awareness. Not to be used for flight planning purposes.